createdAt,value
2022-10-28T03:35:18.456Z,0
2022-10-28T03:40:20.160Z,0
2022-10-28T03:45:22.341Z,0
2022-10-28T03:50:24.504Z,0
2022-10-28T03:55:26.268Z,0
2022-10-28T04:00:28.137Z,1.6
2022-10-28T04:05:30.179Z,1.6
2022-10-28T04:10:32.213Z,0
2022-10-28T04:15:34.053Z,0
2022-10-28T04:20:35.783Z,0
2022-10-28T04:25:37.642Z,0
2022-10-28T04:30:39.342Z,0
2022-10-28T04:35:41.582Z,0
2022-10-28T04:40:43.339Z,0
2022-10-28T04:45:45.739Z,0
2022-10-28T04:50:47.951Z,0.43
2022-10-28T04:55:49.615Z,0.43
2022-10-28T05:00:51.416Z,0
2022-10-28T05:05:53.206Z,0
2022-10-28T05:10:54.955Z,0
2022-10-28T05:15:56.635Z,0.62
2022-10-28T05:20:58.276Z,0.62
2022-10-28T05:25:59.973Z,0
2022-10-28T05:31:01.824Z,0
2022-10-28T05:36:03.763Z,1.09
2022-10-28T05:41:05.778Z,1.09
2022-10-28T05:46:07.897Z,0
2022-10-28T05:51:09.615Z,0
2022-10-28T05:56:11.544Z,0
2022-10-28T06:01:13.809Z,0
2022-10-28T06:06:15.519Z,0
2022-10-28T06:11:15.776Z,0
2022-10-28T06:16:17.494Z,0
2022-10-28T06:21:19.200Z,0
2022-10-28T06:26:20.973Z,0
2022-10-28T06:31:22.724Z,0
2022-10-28T06:36:24.536Z,0.62
2022-10-28T06:41:26.321Z,1.06
2022-10-28T06:46:28.042Z,1.06
2022-10-28T06:51:31.717Z,1.43
2022-10-28T06:56:33.428Z,1.43
2022-10-28T07:01:35.877Z,0
2022-10-28T07:06:37.669Z,0
2022-10-28T07:11:39.444Z,0
2022-10-28T07:16:41.646Z,0
2022-10-28T07:21:43.951Z,0.86
2022-10-28T07:26:47.595Z,0.86
2022-10-28T07:31:49.767Z,0
2022-10-28T07:36:51.843Z,0
2022-10-28T07:41:53.640Z,1.25
2022-10-28T07:46:59.298Z,1.25
2022-10-28T07:52:01.080Z,1.66
2022-10-28T07:57:02.856Z,1.66
2022-10-28T08:02:05.289Z,2.19
2022-10-28T08:07:07.106Z,1.97
2022-10-28T08:12:09.714Z,1.97
2022-10-28T08:17:11.542Z,1.81
2022-10-28T08:22:13.591Z,1.81
2022-10-28T08:27:15.489Z,0
2022-10-28T08:32:17.203Z,0
2022-10-28T08:37:19.431Z,0
2022-10-28T08:42:27.098Z,0
2022-10-28T08:47:34.770Z,0
2022-10-28T08:52:40.258Z,0
2022-10-28T08:57:44.685Z,2.46
2022-10-28T09:02:50.952Z,2.46
2022-10-28T09:07:53.898Z,0
2022-10-28T09:12:59.992Z,0
2022-10-28T09:28:18.380Z,0.62
2022-10-28T09:38:28.605Z,0
2022-10-28T09:43:32.455Z,1.11
2022-10-28T09:48:37.099Z,1.11
2022-10-28T09:53:40.934Z,0
2022-10-28T09:58:45.802Z,0
2022-10-28T10:03:49.349Z,1.77
2022-10-28T10:08:51.039Z,1.77
2022-10-28T10:13:54.196Z,2.13
2022-10-28T10:18:57.941Z,2.13
2022-10-28T10:23:59.731Z,1.57
2022-10-28T10:29:01.544Z,1.57
2022-10-28T10:34:03.313Z,0
2022-10-28T10:49:18.656Z,0
2022-10-28T10:54:21.019Z,0
2022-10-28T10:59:24.882Z,1.36
2022-10-28T11:04:28.096Z,1.36
2022-10-28T11:09:31.091Z,1.16
2022-10-28T11:14:32.959Z,1.16
2022-10-28T11:19:35.574Z,1.15
2022-10-28T11:24:44.538Z,1.15
2022-10-28T11:29:46.781Z,2.68
2022-10-28T11:40:08.360Z,2.65
2022-10-28T11:45:12.418Z,2.65
2022-10-28T11:55:25.615Z,2.53
2022-10-28T12:10:47.965Z,2.1
2022-10-28T12:15:55.265Z,0
2022-10-28T12:21:00.057Z,0
2022-10-28T12:26:04.763Z,1.15
2022-10-28T12:31:08.270Z,1.15
2022-10-28T12:36:16.683Z,2.11
2022-10-28T12:41:21.735Z,2.11
2022-10-28T12:46:29.178Z,1.57
2022-10-28T12:51:33.664Z,1.57
2022-10-28T12:56:37.498Z,0.61
2022-10-28T13:01:40.505Z,0.61
2022-10-28T13:22:19.992Z,1.91
2022-10-28T13:27:22.334Z,1.91
2022-10-28T13:37:36.838Z,0
2022-10-28T13:47:43.829Z,1.4
2022-10-28T13:52:46.321Z,1.4
2022-10-28T13:57:50.246Z,1.4
2022-10-28T14:02:56.834Z,0
2022-10-28T14:08:00.918Z,0
2022-10-28T14:13:05.878Z,0
2022-10-28T14:33:35.676Z,0
2022-10-28T14:43:47.689Z,0.89
2022-10-28T14:48:50.952Z,1.63
2022-10-28T14:53:56.127Z,1.63
2022-10-28T14:58:59.184Z,1.49
2022-10-28T15:04:01.801Z,1.49
2022-10-28T15:09:12.148Z,0
2022-10-28T15:14:15.425Z,0
2022-10-28T15:19:18.753Z,0.9
2022-10-28T15:24:20.470Z,0
2022-10-28T15:29:22.491Z,0
2022-10-28T15:34:24.412Z,0
2022-10-28T15:39:26.267Z,0
2022-10-28T15:44:31.494Z,0
2022-10-28T15:49:35.502Z,0
2022-10-28T15:54:37.250Z,0
2022-10-28T15:59:39.279Z,0
2022-10-28T16:04:42.266Z,1.38
2022-10-28T16:09:46.981Z,1.38
2022-10-28T16:19:56.956Z,0.82
2022-10-28T16:24:59.051Z,0
2022-10-28T16:30:01.661Z,0
2022-10-28T16:35:03.978Z,0
2022-10-28T16:45:15.691Z,0
2022-10-28T16:50:17.938Z,0
2022-10-28T16:55:20.335Z,0
2022-10-28T17:00:22.469Z,0
2022-10-28T17:05:25.336Z,0
2022-10-28T17:10:27.906Z,0
2022-10-28T17:15:29.964Z,0
2022-10-28T17:20:32.238Z,0
2022-10-28T17:25:34.939Z,0
2022-10-28T17:30:38.493Z,0
2022-10-28T17:35:41.370Z,0
2022-10-28T17:40:43.606Z,0
2022-10-28T17:45:45.729Z,0
2022-10-28T17:55:56.721Z,0
2022-10-28T18:00:59.710Z,0
2022-10-28T18:06:02.296Z,0
2022-10-28T18:11:05.182Z,0
2022-10-28T18:16:10.535Z,0
2022-10-28T18:21:13.371Z,0
2022-10-28T18:26:16.375Z,0
2022-10-28T18:31:20.159Z,0
2022-10-28T18:36:24.600Z,0
2022-10-28T18:41:28.318Z,0
2022-10-28T18:46:34.449Z,0
2022-10-28T18:51:37.165Z,0
2022-10-28T18:56:41.637Z,0.97
2022-10-28T19:01:47.278Z,0.97
2022-10-28T19:06:50.488Z,0
2022-10-28T19:11:52.974Z,0
2022-10-28T19:16:55.375Z,0
2022-10-28T19:21:57.468Z,0
2022-10-28T19:27:01.194Z,0
2022-10-28T19:32:04.404Z,0
2022-10-28T19:37:06.644Z,0
2022-10-28T19:42:11.133Z,0
2022-10-28T19:47:13.096Z,0
2022-10-28T19:52:15.367Z,0
2022-10-28T19:57:18.089Z,0
2022-10-28T20:02:22.040Z,0
2022-10-28T20:07:24.412Z,0
2022-10-28T20:12:26.923Z,0.45
2022-10-28T20:17:29.118Z,0.45
2022-10-28T20:22:30.937Z,0
2022-10-28T20:27:33.028Z,0
2022-10-28T20:32:34.891Z,0
2022-10-28T20:37:36.643Z,0
2022-10-28T20:42:38.609Z,0
2022-10-28T20:47:40.365Z,0
2022-10-28T20:52:42.134Z,0
2022-10-28T20:57:44.054Z,0
2022-10-28T21:02:46.509Z,0
2022-10-28T21:07:48.629Z,0
2022-10-28T21:12:50.456Z,0
2022-10-28T21:17:53.384Z,0
2022-10-28T21:22:57.406Z,0
2022-10-28T21:28:00.125Z,0
2022-10-28T21:33:02.476Z,0
